Time;durP1;ratioP1;P1;durP2;ratioP2;P2;SDS_P1;SDS_P2;PMS_P1;PMS_P2;Temp;Humidity;BMP_temperature;BMP_pressure;BME280_temperature;BME280_humidity;BME280_pressure;Samples;Min_cycle;Max_cycle;Signal;HPM_P1;HPM_P2
2023/09/13 00:02:16;;;;;;;11.03;9.97;;;18.30;99.90;;;;;;5064245;28;21007;-77
2023/09/13 00:04:43;;;;;;;9.13;8.33;;;18.30;99.90;;;;;;5066363;28;20549;-76
2023/09/13 00:07:10;;;;;;;10.43;9.43;;;18.20;99.90;;;;;;5061252;28;20464;-77
2023/09/13 00:09:40;;;;;;;9.93;9.03;;;18.30;99.90;;;;;;5064876;28;20452;-76
2023/09/13 00:12:09;;;;;;;8.70;7.90;;;18.10;99.90;;;;;;5059059;28;20464;-75
2023/09/13 00:14:36;;;;;;;10.57;9.57;;;18.10;99.90;;;;;;5054163;28;20448;-77
2023/09/13 00:17:03;;;;;;;18.53;9.87;;;18.20;99.90;;;;;;5052195;28;20506;-79
2023/09/13 00:19:31;;;;;;;10.27;9.27;;;18.10;99.90;;;;;;5052450;28;20445;-77
2023/09/13 00:21:58;;;;;;;10.77;9.10;;;18.10;99.90;;;;;;5057563;28;20574;-78
2023/09/13 00:24:25;;;;;;;15.63;10.37;;;18.00;99.90;;;;;;5061943;28;20473;-78
2023/09/13 00:26:52;;;;;;;9.80;9.00;;;18.00;99.90;;;;;;5059974;28;20512;-77
2023/09/13 00:29:20;;;;;;;10.40;9.30;;;18.00;99.90;;;;;;5048300;28;20446;-75
2023/09/13 00:31:47;;;;;;;10.40;9.33;;;18.00;99.90;;;;;;5063074;28;20448;-76
2023/09/13 00:34:14;;;;;;;8.60;7.93;;;18.00;99.90;;;;;;5056793;28;20510;-77
2023/09/13 00:36:41;;;;;;;12.30;11.00;;;18.00;99.90;;;;;;5065898;28;20439;-77
2023/09/13 00:39:08;;;;;;;10.07;9.07;;;17.90;99.90;;;;;;5064942;28;20513;-77
2023/09/13 00:41:35;;;;;;;10.53;9.37;;;17.80;99.90;;;;;;5065612;28;20476;-78
2023/09/13 00:44:02;;;;;;;9.80;8.90;;;17.80;99.90;;;;;;5059966;28;20547;-78
2023/09/13 00:46:30;;;;;;;8.40;7.80;;;17.70;99.90;;;;;;5057276;28;20842;-77
2023/09/13 00:48:58;;;;;;;8.30;7.57;;;17.60;99.90;;;;;;5052881;28;21142;-78
2023/09/13 00:51:26;;;;;;;9.00;8.10;;;17.50;99.90;;;;;;5066176;28;20936;-78
2023/09/13 00:53:53;;;;;;;8.70;8.00;;;17.50;99.90;;;;;;5063001;28;20468;-76
2023/09/13 00:56:20;;;;;;;9.67;8.77;;;17.50;99.90;;;;;;5063146;28;20452;-77
2023/09/13 00:58:48;;;;;;;10.17;9.00;;;17.50;99.90;;;;;;5056925;28;20510;-78
2023/09/13 01:01:16;;;;;;;9.33;8.43;;;17.50;99.90;;;;;;5049803;28;20564;-78
2023/09/13 01:03:45;;;;;;;9.60;8.70;;;17.40;99.90;;;;;;5061701;28;20450;-77
2023/09/13 01:06:13;;;;;;;10.13;9.23;;;17.30;99.90;;;;;;5058510;28;20962;-76
2023/09/13 01:08:41;;;;;;;10.57;9.13;;;17.50;99.90;;;;;;5065332;28;20964;-76
2023/09/13 01:11:08;;;;;;;9.03;8.33;;;17.40;99.90;;;;;;5077868;28;20556;-76
2023/09/13 01:13:36;;;;;;;10.33;9.33;;;17.30;99.90;;;;;;5069447;28;20454;-76
2023/09/13 01:16:14;;;;;;;9.27;8.23;;;17.30;99.90;;;;;;5060272;28;20518;-75
2023/09/13 01:18:49;;;;;;;10.30;8.70;;;17.20;99.90;;;;;;5065808;28;20440;-78
2023/09/13 01:21:52;;;;;;;8.73;8.03;;;17.20;99.90;;;;;;5069991;28;20849;-77
2023/09/13 01:24:42;;;;;;;11.33;10.23;;;17.20;99.90;;;;;;5056275;28;20464;-76
2023/09/13 01:27:26;;;;;;;9.97;8.97;;;17.20;99.90;;;;;;5058892;28;20501;-76
2023/09/13 01:29:57;;;;;;;10.80;9.70;;;17.10;99.90;;;;;;5061860;28;20553;-77
2023/09/13 01:32:24;;;;;;;9.77;8.97;;;17.10;99.90;;;;;;5059705;28;20541;-77
2023/09/13 01:34:51;;;;;;;11.07;10.27;;;17.10;99.90;;;;;;5060756;28;20525;-76
2023/09/13 01:37:18;;;;;;;9.70;8.60;;;17.10;99.90;;;;;;5066338;28;20519;-75
2023/09/13 01:39:45;;;;;;;15.33;8.40;;;17.00;99.90;;;;;;5064699;28;20453;-78
2023/09/13 01:42:14;;;;;;;11.27;10.17;;;17.00;99.90;;;;;;5063187;28;20541;-75
2023/09/13 01:44:43;;;;;;;10.30;9.30;;;17.00;99.90;;;;;;5065572;28;20528;-76
2023/09/13 01:47:13;;;;;;;9.90;8.93;;;16.90;99.90;;;;;;5069327;28;20498;-76
2023/09/13 01:49:43;;;;;;;9.47;8.57;;;17.00;99.90;;;;;;5054335;28;20562;-76
2023/09/13 01:52:10;;;;;;;11.13;9.90;;;17.00;99.90;;;;;;5068722;28;20450;-77
2023/09/13 01:54:37;;;;;;;9.73;8.90;;;16.90;99.90;;;;;;5055803;28;20525;-76
2023/09/13 01:57:04;;;;;;;10.53;9.60;;;17.00;99.90;;;;;;5063361;28;20452;-75
2023/09/13 01:59:34;;;;;;;9.87;8.97;;;17.00;99.90;;;;;;5059931;28;20443;-77
2023/09/13 02:02:01;;;;;;;10.63;9.63;;;16.90;99.90;;;;;;5064247;28;20917;-77
2023/09/13 02:04:32;;;;;;;10.50;9.60;;;16.90;99.90;;;;;;5065278;28;20833;-77
2023/09/13 02:07:00;;;;;;;9.67;8.77;;;16.90;99.90;;;;;;5061007;28;20472;-75
2023/09/13 02:09:27;;;;;;;9.50;8.60;;;16.90;99.90;;;;;;5057520;28;20444;-78
2023/09/13 02:11:54;;;;;;;10.63;9.73;;;16.90;99.90;;;;;;5061315;28;20876;-76
2023/09/13 02:14:21;;;;;;;9.67;8.77;;;16.90;99.90;;;;;;5068390;28;20473;-76
2023/09/13 02:16:48;;;;;;;11.57;10.57;;;16.90;99.90;;;;;;5066053;28;20584;-76
2023/09/13 02:19:15;;;;;;;11.77;10.57;;;16.90;99.90;;;;;;5069064;28;20469;-76
2023/09/13 02:21:43;;;;;;;10.83;9.83;;;16.80;99.90;;;;;;5064251;28;20892;-76
2023/09/13 02:24:10;;;;;;;11.33;10.00;;;16.80;99.90;;;;;;5062893;28;20502;-75
2023/09/13 02:26:37;;;;;;;9.33;8.43;;;16.70;99.90;;;;;;5061533;28;20515;-75
2023/09/13 02:29:04;;;;;;;10.80;9.80;;;16.70;99.90;;;;;;5060640;28;20487;-77
2023/09/13 02:31:31;;;;;;;13.67;10.37;;;16.70;99.90;;;;;;5068623;28;20494;-78
2023/09/13 02:33:58;;;;;;;13.60;10.57;;;16.70;99.90;;;;;;5069953;28;20472;-75
2023/09/13 02:36:25;;;;;;;19.10;12.07;;;16.80;99.90;;;;;;5060491;28;21092;-75
2023/09/13 02:38:54;;;;;;;11.03;10.03;;;16.90;99.90;;;;;;5064531;28;20463;-76
2023/09/13 02:41:21;;;;;;;16.90;10.80;;;17.00;99.90;;;;;;5062231;28;20448;-78
2023/09/13 02:43:48;;;;;;;11.47;10.37;;;16.80;99.90;;;;;;5063187;28;20500;-78
2023/09/13 02:46:15;;;;;;;8.87;8.07;;;16.80;99.90;;;;;;5063251;28;20525;-75
2023/09/13 02:48:42;;;;;;;11.40;10.30;;;16.80;99.90;;;;;;5061041;28;20892;-78
2023/09/13 02:51:13;;;;;;;12.70;10.40;;;16.70;99.90;;;;;;5059846;28;20464;-77
2023/09/13 02:53:40;;;;;;;10.10;9.13;;;16.70;99.90;;;;;;5066293;28;20531;-78
2023/09/13 02:56:09;;;;;;;10.87;9.77;;;16.70;99.90;;;;;;5066143;28;20479;-77
2023/09/13 02:58:37;;;;;;;11.07;10.10;;;16.70;99.90;;;;;;5061194;28;20967;-77
2023/09/13 03:01:09;;;;;;;11.80;10.70;;;16.70;99.90;;;;;;5062211;28;20538;-76
2023/09/13 03:03:36;;;;;;;11.03;10.10;;;16.70;99.90;;;;;;5066178;28;20502;-76
2023/09/13 03:06:07;;;;;;;14.93;11.53;;;16.70;99.90;;;;;;5062330;28;20525;-76
2023/09/13 03:08:34;;;;;;;10.90;9.90;;;16.70;99.90;;;;;;5058688;28;20453;-77
2023/09/13 03:11:11;;;;;;;11.53;10.30;;;16.80;99.90;;;;;;5056662;28;20488;-76
2023/09/13 03:13:38;;;;;;;13.17;11.87;;;16.80;99.90;;;;;;5055048;28;20472;-75
2023/09/13 03:16:13;;;;;;;11.93;10.80;;;16.80;99.90;;;;;;5066743;28;20468;-76
2023/09/13 03:18:40;;;;;;;12.40;11.20;;;16.90;99.90;;;;;;5054190;28;20532;-76
2023/09/13 03:21:08;;;;;;;12.40;11.10;;;16.90;99.90;;;;;;5058478;28;20456;-78
2023/09/13 03:23:37;;;;;;;11.60;10.40;;;16.90;99.90;;;;;;5061093;28;20477;-78
2023/09/13 03:26:13;;;;;;;12.60;11.40;;;16.80;99.90;;;;;;5049810;28;20460;-77
2023/09/13 03:28:40;;;;;;;12.57;11.43;;;16.90;99.90;;;;;;5054440;28;20459;-75
2023/09/13 03:31:10;;;;;;;9.93;9.13;;;16.90;99.90;;;;;;5060429;28;20514;-75
2023/09/13 03:33:37;;;;;;;12.10;10.90;;;16.80;99.90;;;;;;5069136;28;20491;-75
2023/09/13 03:36:04;;;;;;;11.67;10.57;;;16.80;99.90;;;;;;5062441;28;20476;-75
2023/09/13 03:38:31;;;;;;;14.70;12.10;;;16.80;99.90;;;;;;5060150;28;20452;-76
2023/09/13 03:40:58;;;;;;;13.67;11.20;;;16.80;99.90;;;;;;5057828;28;20466;-77
2023/09/13 03:43:27;;;;;;;12.87;11.33;;;16.90;99.90;;;;;;5065363;28;20541;-77
2023/09/13 03:45:54;;;;;;;12.90;11.70;;;16.80;99.90;;;;;;5063087;28;20432;-76
2023/09/13 03:48:21;;;;;;;12.80;11.60;;;16.70;99.90;;;;;;5065616;28;20463;-76
2023/09/13 03:50:48;;;;;;;13.17;11.87;;;16.60;99.90;;;;;;5063381;28;20596;-76
2023/09/13 03:53:14;;;;;;;18.13;12.33;;;16.60;99.90;;;;;;5062518;28;20459;-75
2023/09/13 03:55:42;;;;;;;13.67;12.30;;;16.70;99.90;;;;;;5059118;28;20447;-74
2023/09/13 03:58:09;;;;;;;13.23;11.93;;;16.60;99.90;;;;;;5063253;28;20544;-76
2023/09/13 04:00:38;;;;;;;10.63;9.33;;;16.50;99.90;;;;;;5058709;28;20525;-76
2023/09/13 04:03:06;;;;;;;13.47;11.90;;;16.50;99.90;;;;;;5061739;28;20970;-75
2023/09/13 04:05:33;;;;;;;13.87;12.40;;;16.40;99.90;;;;;;5064299;28;20951;-75
2023/09/13 04:08:00;;;;;;;13.77;12.33;;;16.50;99.90;;;;;;5062536;28;20869;-79
2023/09/13 04:10:27;;;;;;;15.20;13.60;;;16.40;99.90;;;;;;5066014;28;20464;-76
2023/09/13 04:12:54;;;;;;;14.87;13.37;;;16.40;99.90;;;;;;5060161;28;20544;-76
2023/09/13 04:15:21;;;;;;;14.60;13.10;;;16.40;99.90;;;;;;5058948;28;21211;-75
2023/09/13 04:17:49;;;;;;;17.30;14.83;;;16.30;99.90;;;;;;5068063;28;20509;-75
2023/09/13 04:20:16;;;;;;;16.10;14.40;;;16.40;99.90;;;;;;5056426;28;20471;-77
2023/09/13 04:22:43;;;;;;;14.67;12.60;;;16.50;99.90;;;;;;5059446;28;20536;-77
2023/09/13 04:25:10;;;;;;;21.80;15.30;;;16.50;99.90;;;;;;5070160;28;20460;-78
2023/09/13 04:27:37;;;;;;;17.37;15.60;;;16.50;99.90;;;;;;5055426;28;20561;-76
2023/09/13 04:30:05;;;;;;;16.87;15.20;;;16.50;99.90;;;;;;5057247;28;20460;-79
2023/09/13 04:32:33;;;;;;;15.67;13.27;;;16.50;99.90;;;;;;5056952;28;20467;-76
2023/09/13 04:35:02;;;;;;;15.50;13.47;;;16.40;99.90;;;;;;5061942;28;20554;-79
2023/09/13 04:37:30;;;;;;;18.00;13.17;;;16.40;99.90;;;;;;5055025;28;20461;-77
2023/09/13 04:39:57;;;;;;;14.47;11.57;;;16.40;99.90;;;;;;5066638;28;20467;-77
2023/09/13 04:42:24;;;;;;;15.60;13.90;;;16.50;99.90;;;;;;5065564;28;20488;-77
2023/09/13 04:44:51;;;;;;;15.80;14.23;;;16.40;99.90;;;;;;5061955;28;20471;-78
2023/09/13 04:47:18;;;;;;;14.27;12.90;;;16.50;99.90;;;;;;5069039;28;21309;-77
2023/09/13 04:49:45;;;;;;;13.93;12.53;;;16.50;99.90;;;;;;5061073;28;20579;-75
2023/09/13 04:52:14;;;;;;;12.77;11.47;;;16.60;99.90;;;;;;5076378;28;20459;-76
2023/09/13 04:54:40;;;;;;;13.43;12.13;;;16.60;99.90;;;;;;5075741;28;20949;-76
2023/09/13 04:57:07;;;;;;;12.63;11.10;;;16.70;99.90;;;;;;5067311;28;20548;-75
2023/09/13 04:59:46;;;;;;;14.13;12.50;;;16.70;99.90;;;;;;5071164;28;20458;-76
2023/09/13 05:02:13;;;;;;;15.23;11.83;;;16.70;99.90;;;;;;5074149;28;20474;-76
2023/09/13 05:04:40;;;;;;;14.47;13.00;;;16.70;99.90;;;;;;5063349;28;20483;-77
2023/09/13 05:07:07;;;;;;;11.20;10.17;;;16.60;99.90;;;;;;5066209;28;20517;-77
2023/09/13 05:09:37;;;;;;;12.97;11.17;;;16.70;99.90;;;;;;5062473;28;20852;-76
2023/09/13 05:12:04;;;;;;;12.37;9.70;;;16.80;99.90;;;;;;5066727;28;20444;-76
2023/09/13 05:14:31;;;;;;;12.20;10.97;;;16.80;99.90;;;;;;5067328;28;20671;-76
2023/09/13 05:16:58;;;;;;;11.57;10.40;;;16.90;99.90;;;;;;5059023;28;20524;-78
2023/09/13 05:19:25;;;;;;;12.47;11.03;;;16.90;99.90;;;;;;5053994;28;20448;-76
2023/09/13 05:21:52;;;;;;;10.40;9.50;;;17.00;99.90;;;;;;5061068;28;20526;-76
2023/09/13 05:24:19;;;;;;;25.63;10.50;;;17.10;99.90;;;;;;5062366;28;21086;-78
2023/09/13 05:26:48;;;;;;;21.27;10.60;;;17.20;99.90;;;;;;5066516;28;20501;-77
2023/09/13 05:29:15;;;;;;;11.07;9.77;;;17.30;99.90;;;;;;5058737;28;20498;-76
2023/09/13 05:31:41;;;;;;;12.80;11.60;;;17.40;99.90;;;;;;5054210;28;21038;-76
2023/09/13 05:34:09;;;;;;;10.67;9.67;;;17.50;99.90;;;;;;5059282;28;20501;-76
2023/09/13 05:36:36;;;;;;;11.37;10.10;;;17.60;99.90;;;;;;5054964;28;21020;-78
2023/09/13 05:39:04;;;;;;;10.43;9.40;;;17.60;99.90;;;;;;5053540;28;21266;-76
2023/09/13 05:41:32;;;;;;;11.13;10.00;;;17.70;99.90;;;;;;5066989;28;20499;-76
2023/09/13 05:44:01;;;;;;;9.50;8.70;;;17.90;99.90;;;;;;5066868;28;20479;-77
2023/09/13 05:46:28;;;;;;;9.87;8.90;;;18.10;99.90;;;;;;5065436;28;20482;-78
2023/09/13 05:48:54;;;;;;;10.10;9.00;;;18.20;99.90;;;;;;5055873;28;20447;-78
2023/09/13 05:51:21;;;;;;;8.90;8.03;;;18.40;99.90;;;;;;5061845;28;20443;-76
2023/09/13 05:53:48;;;;;;;9.33;8.43;;;18.40;99.90;;;;;;5063875;28;20472;-77
2023/09/13 05:56:15;;;;;;;10.90;8.10;;;18.50;99.90;;;;;;5057363;28;20451;-75
2023/09/13 05:58:43;;;;;;;8.57;7.77;;;18.60;99.90;;;;;;5059280;28;21062;-77
2023/09/13 06:01:12;;;;;;;11.43;9.73;;;18.60;99.90;;;;;;5059232;28;20496;-77
2023/09/13 06:03:39;;;;;;;12.47;10.40;;;18.60;99.90;;;;;;5060234;28;20487;-78
2023/09/13 06:06:06;;;;;;;12.97;11.40;;;18.70;99.90;;;;;;5065156;28;20519;-79
2023/09/13 06:08:32;;;;;;;11.43;9.83;;;18.70;99.90;;;;;;5061679;28;20476;-79
2023/09/13 06:11:00;;;;;;;10.50;9.47;;;18.70;99.90;;;;;;5067948;28;20489;-79
2023/09/13 06:13:27;;;;;;;11.03;9.93;;;18.80;99.90;;;;;;5065495;28;20444;-80
2023/09/13 06:15:54;;;;;;;10.30;9.30;;;18.80;99.90;;;;;;5064582;28;20460;-79
2023/09/13 06:18:23;;;;;;;11.93;8.87;;;18.90;99.90;;;;;;5073753;28;20461;-80
2023/09/13 06:20:50;;;;;;;9.80;8.87;;;19.00;99.90;;;;;;5064099;28;20523;-78
2023/09/13 06:23:35;;;;;;;10.23;9.20;;;19.00;99.90;;;;;;5068228;28;20464;-80
2023/09/13 06:26:02;;;;;;;7.70;7.00;;;19.20;99.90;;;;;;5064296;28;20482;-80
2023/09/13 06:28:29;;;;;;;8.33;7.50;;;19.40;99.90;;;;;;5068615;28;20446;-79
2023/09/13 06:30:58;;;;;;;8.30;7.40;;;19.60;99.90;;;;;;5067468;28;20459;-80
2023/09/13 06:33:27;;;;;;;8.07;7.27;;;19.80;99.90;;;;;;5066125;28;20968;-81
2023/09/13 06:35:55;;;;;;;7.93;7.23;;;20.00;99.90;;;;;;5067148;28;20931;-78
2023/09/13 06:38:22;;;;;;;8.30;7.50;;;20.20;99.90;;;;;;5059812;28;20464;-78
2023/09/13 06:40:51;;;;;;;7.00;6.30;;;20.30;99.90;;;;;;5064219;28;20501;-78
2023/09/13 06:43:18;;;;;;;13.63;5.03;;;20.40;99.90;;;;;;5056912;28;20523;-79
2023/09/13 06:45:46;;;;;;;4.87;4.50;;;20.40;99.90;;;;;;5066215;28;20467;-79
2023/09/13 06:48:14;;;;;;;4.80;4.07;;;20.50;99.90;;;;;;5066090;28;20444;-79
2023/09/13 06:50:42;;;;;;;3.50;3.00;;;20.70;99.90;;;;;;5064012;28;20860;-78
2023/09/13 06:53:09;;;;;;;3.53;3.23;;;20.80;99.90;;;;;;5063694;28;20452;-79
2023/09/13 06:55:36;;;;;;;3.70;3.40;;;20.80;99.90;;;;;;5062657;28;20521;-79
2023/09/13 06:58:06;;;;;;;2.77;2.13;;;20.90;99.90;;;;;;5065339;28;21027;-80
2023/09/13 07:00:33;;;;;;;3.07;2.37;;;20.90;99.90;;;;;;5058298;28;20980;-79
2023/09/13 07:03:03;;;;;;;3.70;2.77;;;21.10;99.90;;;;;;5053940;28;20526;-80
2023/09/13 07:05:30;;;;;;;2.27;2.03;;;21.30;99.90;;;;;;5056330;28;20485;-78
2023/09/13 07:08:00;;;;;;;5.73;2.30;;;21.40;99.90;;;;;;5052853;28;20464;-78
2023/09/13 07:10:27;;;;;;;3.63;2.30;;;21.40;99.90;;;;;;5064174;28;20439;-77
2023/09/13 07:12:54;;;;;;;2.50;2.30;;;21.40;99.90;;;;;;5058618;28;21161;-77
2023/09/13 07:15:21;;;;;;;3.07;2.23;;;21.60;99.90;;;;;;5066721;28;20524;-79
2023/09/13 07:17:48;;;;;;;2.40;1.70;;;21.60;99.90;;;;;;5055915;28;20444;-77
2023/09/13 07:20:15;;;;;;;3.20;2.37;;;21.80;99.90;;;;;;5064407;28;20470;-80
2023/09/13 07:22:42;;;;;;;2.17;2.00;;;21.90;99.90;;;;;;5065100;28;20459;-78
2023/09/13 07:25:10;;;;;;;1.97;1.70;;;21.90;99.90;;;;;;5064077;28;20541;-80
2023/09/13 07:27:37;;;;;;;2.37;2.07;;;22.00;99.90;;;;;;5061584;28;20515;-80
2023/09/13 07:30:09;;;;;;;2.23;1.43;;;22.00;99.90;;;;;;5063013;28;20496;-79
2023/09/13 07:32:36;;;;;;;3.23;2.30;;;22.00;99.90;;;;;;5065622;28;20513;-80
2023/09/13 07:35:05;;;;;;;10.03;3.00;;;22.10;99.90;;;;;;5062015;28;20443;-79
2023/09/13 07:37:33;;;;;;;2.30;1.83;;;22.00;99.90;;;;;;5066932;28;20509;-79
2023/09/13 07:40:00;;;;;;;2.10;1.90;;;22.10;99.90;;;;;;5060219;28;20476;-77
2023/09/13 07:42:29;;;;;;;3.07;2.80;;;22.00;99.90;;;;;;5076850;28;20469;-78
2023/09/13 07:44:56;;;;;;;2.60;1.77;;;22.00;99.90;;;;;;5064475;28;20483;-80
2023/09/13 07:47:23;;;;;;;4.23;2.53;;;22.20;99.90;;;;;;5068414;28;20498;-80
2023/09/13 07:49:50;;;;;;;5.73;1.67;;;22.20;99.90;;;;;;5065623;28;21052;-78
2023/09/13 07:52:17;;;;;;;2.67;1.87;;;22.20;99.90;;;;;;5066553;28;21161;-79
2023/09/13 07:54:44;;;;;;;2.57;2.37;;;22.00;99.90;;;;;;5062386;28;20915;-78
2023/09/13 07:57:11;;;;;;;2.40;2.23;;;21.90;99.90;;;;;;5065647;28;20447;-79
2023/09/13 07:59:39;;;;;;;4.70;2.03;;;22.10;99.90;;;;;;5066022;28;20535;-79
2023/09/13 08:02:07;;;;;;;4.17;2.37;;;22.30;99.90;;;;;;5066342;28;20459;-78
2023/09/13 08:04:34;;;;;;;2.20;1.90;;;22.40;99.90;;;;;;5063704;28;20491;-80
2023/09/13 08:07:01;;;;;;;2.37;2.17;;;22.60;99.90;;;;;;5067133;28;20532;-80
2023/09/13 08:09:28;;;;;;;2.40;1.90;;;22.50;99.90;;;;;;5064915;28;20502;-78
2023/09/13 08:11:55;;;;;;;2.10;2.00;;;22.50;99.90;;;;;;5064794;28;20884;-78
2023/09/13 08:14:23;;;;;;;3.03;2.20;;;22.60;99.90;;;;;;5059759;28;20521;-77
2023/09/13 08:16:52;;;;;;;3.37;2.20;;;22.50;99.90;;;;;;5060533;28;20467;-80
2023/09/13 08:19:19;;;;;;;2.77;2.57;;;22.60;99.90;;;;;;5065235;28;20879;-79
2023/09/13 08:21:46;;;;;;;3.57;2.00;;;22.60;99.90;;;;;;5061926;28;20468;-80
2023/09/13 08:24:13;;;;;;;6.47;2.07;;;22.70;99.90;;;;;;5065651;28;20483;-78
2023/09/13 08:26:39;;;;;;;3.20;2.07;;;22.80;99.90;;;;;;5065652;28;20448;-80
2023/09/13 08:29:06;;;;;;;1.90;1.47;;;23.00;99.90;;;;;;5061886;28;20467;-80
2023/09/13 08:31:33;;;;;;;2.27;2.10;;;23.20;99.90;;;;;;5067274;28;20922;-77
2023/09/13 08:34:02;;;;;;;3.73;2.00;;;23.40;99.90;;;;;;5064126;28;20524;-78
2023/09/13 08:36:30;;;;;;;4.17;2.00;;;23.50;99.90;;;;;;5063578;28;20475;-80
2023/09/13 08:38:58;;;;;;;2.07;1.80;;;23.70;99.90;;;;;;5061726;28;20845;-80
2023/09/13 08:41:25;;;;;;;2.63;2.20;;;23.70;99.90;;;;;;5054356;28;20448;-79
2023/09/13 08:43:54;;;;;;;1.90;1.80;;;23.70;99.90;;;;;;5053497;28;20455;-80
2023/09/13 08:46:23;;;;;;;2.60;2.40;;;23.90;99.90;;;;;;5063966;28;20546;-80
2023/09/13 08:48:52;;;;;;;3.87;2.57;;;23.80;99.90;;;;;;5058056;28;20966;-78
2023/09/13 08:51:21;;;;;;;4.83;2.33;;;23.90;99.90;;;;;;5064420;28;20464;-78
2023/09/13 08:53:50;;;;;;;3.27;2.33;;;24.10;99.90;;;;;;5065793;28;20645;-79
2023/09/13 08:56:18;;;;;;;2.70;2.17;;;24.30;99.90;;;;;;5062029;28;20481;-78
2023/09/13 08:58:45;;;;;;;2.60;2.40;;;24.50;99.90;;;;;;5059526;28;20463;-80
2023/09/13 09:01:14;;;;;;;3.67;2.50;;;24.70;99.90;;;;;;5061352;28;20437;-81
2023/09/13 09:03:43;;;;;;;6.83;2.97;;;24.60;99.90;;;;;;5067929;28;20930;-80
2023/09/13 09:06:12;;;;;;;4.57;2.90;;;24.70;99.90;;;;;;5075124;28;20506;-78
2023/09/13 09:08:40;;;;;;;2.33;2.13;;;24.60;99.90;;;;;;5068012;28;20527;-79
2023/09/13 09:11:09;;;;;;;3.30;1.90;;;24.30;99.90;;;;;;5067592;28;20463;-79
2023/09/13 09:13:38;;;;;;;2.90;2.53;;;24.10;99.90;;;;;;5063960;28;20509;-79
2023/09/13 09:16:07;;;;;;;2.57;2.13;;;24.10;99.90;;;;;;5061463;28;20447;-78
2023/09/13 09:18:37;;;;;;;2.60;2.37;;;24.10;99.90;;;;;;5052001;28;20469;-79
2023/09/13 09:21:05;;;;;;;3.00;1.70;;;24.10;99.90;;;;;;5065432;28;20451;-80
2023/09/13 09:23:34;;;;;;;2.87;2.50;;;24.10;99.90;;;;;;5065215;28;20781;-80
2023/09/13 09:26:04;;;;;;;2.50;1.67;;;24.00;99.90;;;;;;5065169;28;20544;-79
2023/09/13 09:28:31;;;;;;;2.40;2.20;;;24.00;99.90;;;;;;5066435;28;20556;-80
2023/09/13 09:31:01;;;;;;;2.37;2.17;;;24.20;99.90;;;;;;5065479;28;20456;-81
2023/09/13 09:33:30;;;;;;;4.00;2.67;;;24.10;99.90;;;;;;5065800;28;20500;-81
2023/09/13 09:36:00;;;;;;;2.87;2.10;;;24.00;99.90;;;;;;5061911;28;20444;-78
2023/09/13 09:38:29;;;;;;;5.30;2.10;;;23.90;99.90;;;;;;5064738;28;20501;-77
2023/09/13 09:40:58;;;;;;;3.63;3.20;;;24.20;99.90;;;;;;5058029;28;20445;-80
2023/09/13 09:43:27;;;;;;;2.27;2.07;;;24.70;99.90;;;;;;5062144;28;20495;-80
2023/09/13 09:45:54;;;;;;;2.60;2.40;;;24.70;99.90;;;;;;5066479;28;20925;-80
2023/09/13 09:48:21;;;;;;;1.97;1.87;;;25.00;99.90;;;;;;5066612;28;20464;-79
2023/09/13 09:50:50;;;;;;;3.93;3.07;;;24.80;99.90;;;;;;5069439;28;20961;-80
2023/09/13 09:53:18;;;;;;;3.80;3.53;;;24.60;99.90;;;;;;5059312;28;20456;-78
2023/09/13 09:55:45;;;;;;;5.27;3.07;;;24.40;99.90;;;;;;5068085;28;20523;-78
2023/09/13 09:58:13;;;;;;;2.90;2.37;;;24.40;99.90;;;;;;5057168;28;20543;-79
2023/09/13 10:00:49;;;;;;;3.77;2.57;;;24.40;99.90;;;;;;5059244;28;20463;-78
2023/09/13 10:03:20;;;;;;;4.30;4.00;;;24.50;99.90;;;;;;5060126;28;20976;-78
2023/09/13 10:05:55;;;;;;;5.00;2.73;;;24.50;99.90;;;;;;5066847;28;20480;-80
2023/09/13 10:08:42;;;;;;;1.90;1.80;;;24.60;99.90;;;;;;5055756;28;20473;-77
2023/09/13 10:11:10;;;;;;;3.57;3.23;;;24.60;99.90;;;;;;5056142;28;20963;-79
2023/09/13 10:13:38;;;;;;;2.70;2.50;;;24.50;99.90;;;;;;5062714;28;20463;-79
2023/09/13 10:16:08;;;;;;;9.63;3.73;;;24.70;99.90;;;;;;5063245;28;20463;-79
2023/09/13 10:18:39;;;;;;;3.00;2.80;;;24.90;99.90;;;;;;5065457;28;20540;-79
2023/09/13 10:21:07;;;;;;;3.40;3.17;;;25.10;99.90;;;;;;5066273;28;20551;-78
2023/09/13 10:23:42;;;;;;;4.93;4.00;;;25.30;99.90;;;;;;5061416;28;20971;-76
2023/09/13 10:26:11;;;;;;;2.23;2.13;;;25.40;99.90;;;;;;5059145;28;20589;-77
2023/09/13 10:28:40;;;;;;;3.07;2.47;;;25.70;99.90;;;;;;5075166;28;20460;-80
2023/09/13 10:31:15;;;;;;;2.50;2.30;;;25.70;99.70;;;;;;5073165;28;20534;-78
2023/09/13 10:33:45;;;;;;;3.70;3.40;;;26.20;99.60;;;;;;5064166;28;20478;-78
2023/09/13 10:36:22;;;;;;;3.27;2.93;;;26.40;98.40;;;;;;5066201;28;20455;-79
2023/09/13 10:38:59;;;;;;;4.70;3.70;;;26.60;97.90;;;;;;5062789;28;20493;-80
2023/09/13 10:41:32;;;;;;;3.30;3.00;;;26.50;96.70;;;;;;5059599;28;20998;-77
2023/09/13 10:43:59;;;;;;;7.10;4.30;;;26.30;96.50;;;;;;5064642;28;20455;-78
2023/09/13 10:46:27;;;;;;;3.83;3.53;;;26.10;96.40;;;;;;5066595;28;20534;-79
2023/09/13 10:48:55;;;;;;;5.87;4.00;;;26.10;98.50;;;;;;5075684;28;20513;-77
2023/09/13 10:51:23;;;;;;;4.67;4.20;;;26.10;97.00;;;;;;5068335;28;20876;-78
2023/09/13 10:53:50;;;;;;;6.60;3.67;;;26.00;98.10;;;;;;5059825;28;20460;-78
2023/09/13 10:56:19;;;;;;;23.03;5.13;;;25.90;97.60;;;;;;5065180;28;20514;-79
2023/09/13 10:58:50;;;;;;;4.13;3.80;;;25.20;98.50;;;;;;5056873;28;20472;-79
2023/09/13 11:01:19;;;;;;;5.53;5.00;;;24.80;98.40;;;;;;5061605;28;20498;-77
2023/09/13 11:03:47;;;;;;;4.00;3.30;;;24.80;99.50;;;;;;5059098;28;20870;-77
2023/09/13 11:06:14;;;;;;;6.13;3.80;;;24.80;99.70;;;;;;5063683;28;20521;-80
2023/09/13 11:08:42;;;;;;;5.77;3.70;;;24.80;99.90;;;;;;5061430;28;20460;-78
2023/09/13 11:11:12;;;;;;;4.37;3.97;;;24.90;99.40;;;;;;5053013;28;20533;-77
2023/09/13 11:13:39;;;;;;;4.17;3.73;;;24.80;99.50;;;;;;5059534;28;20467;-78
2023/09/13 11:16:07;;;;;;;5.43;4.93;;;25.10;99.60;;;;;;5051650;28;20463;-80
2023/09/13 11:18:45;;;;;;;4.47;4.07;;;25.00;99.80;;;;;;5057453;28;20633;-81
2023/09/13 11:21:20;;;;;;;4.37;4.00;;;25.00;99.90;;;;;;5057906;28;20535;-78
2023/09/13 11:23:50;;;;;;;5.33;4.50;;;25.10;99.90;;;;;;5055109;28;20974;-78
2023/09/13 11:26:17;;;;;;;5.37;4.40;;;25.20;99.90;;;;;;5057526;28;20595;-77
2023/09/13 11:28:48;;;;;;;9.23;4.50;;;25.00;99.90;;;;;;5062942;28;20525;-77
2023/09/13 11:31:21;;;;;;;5.50;5.10;;;24.60;99.40;;;;;;5066852;28;20440;-78
2023/09/13 11:33:55;;;;;;;4.43;4.03;;;24.70;99.90;;;;;;5066175;28;20456;-79
2023/09/13 11:36:24;;;;;;;6.00;5.40;;;24.60;99.90;;;;;;5057407;28;20823;-81
2023/09/13 11:38:51;;;;;;;4.73;4.33;;;24.20;99.90;;;;;;5060913;28;20540;-80
2023/09/13 11:41:18;;;;;;;6.67;6.17;;;24.10;99.90;;;;;;5062295;28;20452;-79
2023/09/13 11:43:46;;;;;;;4.80;4.40;;;24.10;99.90;;;;;;5066200;28;20440;-79
2023/09/13 11:46:13;;;;;;;6.27;5.77;;;24.20;99.90;;;;;;5065730;28;20487;-80
2023/09/13 11:48:40;;;;;;;4.90;4.40;;;24.50;99.90;;;;;;5065982;28;20532;-81
2023/09/13 11:51:12;;;;;;;5.60;5.10;;;24.70;99.90;;;;;;5068768;28;20451;-78
2023/09/13 11:53:41;;;;;;;4.70;4.33;;;24.80;99.90;;;;;;5063114;28;20507;-80
2023/09/13 11:56:09;;;;;;;5.57;4.80;;;24.50;99.90;;;;;;5062151;28;20476;-80
2023/09/13 11:58:37;;;;;;;5.90;4.53;;;24.50;99.90;;;;;;5062281;28;20468;-81
2023/09/13 12:01:06;;;;;;;6.17;4.70;;;24.70;99.90;;;;;;5058814;28;21258;-80
2023/09/13 12:03:35;;;;;;;5.07;4.57;;;25.00;99.90;;;;;;5060675;28;20544;-78
2023/09/13 12:06:03;;;;;;;5.50;5.10;;;25.40;99.90;;;;;;5064007;28;21215;-80
2023/09/13 12:08:33;;;;;;;6.63;4.83;;;25.60;99.20;;;;;;5065514;28;20441;-79
2023/09/13 12:11:05;;;;;;;5.70;4.27;;;25.80;99.30;;;;;;5055373;28;20896;-79
2023/09/13 12:13:42;;;;;;;3.80;3.50;;;25.70;98.00;;;;;;5057520;28;20440;-80
2023/09/13 12:16:09;;;;;;;4.40;3.63;;;25.60;98.10;;;;;;5058098;28;20456;-77
2023/09/13 12:18:37;;;;;;;3.17;2.70;;;25.60;98.70;;;;;;5052703;28;20464;-77
2023/09/13 12:21:06;;;;;;;4.87;3.83;;;25.70;98.50;;;;;;5061099;28;20517;-78
2023/09/13 12:23:35;;;;;;;6.30;4.40;;;25.60;99.00;;;;;;5062850;28;20821;-78
2023/09/13 12:26:06;;;;;;;4.83;4.00;;;25.60;98.60;;;;;;5066291;28;20506;-79
2023/09/13 12:28:35;;;;;;;5.27;4.57;;;25.70;98.90;;;;;;5058708;28;20472;-79
2023/09/13 12:31:04;;;;;;;3.00;2.80;;;26.00;98.80;;;;;;5060435;28;20542;-78
2023/09/13 12:33:32;;;;;;;3.00;2.80;;;26.00;95.90;;;;;;5061899;28;20535;-79
2023/09/13 12:35:59;;;;;;;3.07;2.77;;;25.80;96.40;;;;;;5065578;28;20536;-81
2023/09/13 12:38:32;;;;;;;4.63;2.03;;;25.70;96.80;;;;;;5055521;28;20552;-79
2023/09/13 12:40:59;;;;;;;3.40;3.10;;;25.70;96.30;;;;;;5059733;28;20503;-78
2023/09/13 12:43:32;;;;;;;2.90;2.70;;;25.50;96.90;;;;;;5064972;28;20494;-80
2023/09/13 12:45:59;;;;;;;4.43;3.50;;;25.50;96.50;;;;;;5057632;28;20483;-79
2023/09/13 12:48:27;;;;;;;4.30;3.00;;;25.20;96.10;;;;;;5062232;28;20443;-80